Time;durP1;ratioP1;P1;durP2;ratioP2;P2;SDS_P1;SDS_P2;PMS_P1;PMS_P2;Temp;Humidity;BMP_temperature;BMP_pressure;BME280_temperature;BME280_humidity;BME280_pressure;Samples;Min_cycle;Max_cycle;Signal;HPM_P1;HPM_P2
2022/08/04 00:01:28;;;;;;;3.38;2.65;;;19.60;68.30;;;;;;5035057;28;20202;-86
2022/08/04 00:04:00;;;;;;;4.25;2.70;;;19.50;68.90;;;;;;5034747;28;20210;-87
2022/08/04 00:06:44;;;;;;;3.33;2.88;;;19.50;70.40;;;;;;5039339;28;20198;-87
2022/08/04 00:09:20;;;;;;;4.22;2.70;;;19.40;70.00;;;;;;5042079;28;20212;-87
2022/08/04 00:11:51;;;;;;;6.72;3.10;;;19.40;70.90;;;;;;5040421;28;20233;-86
2022/08/04 00:14:21;;;;;;;4.10;2.83;;;19.40;70.90;;;;;;5054322;28;20285;-87
2022/08/04 00:16:51;;;;;;;3.47;2.95;;;19.40;70.60;;;;;;5026615;28;20202;-86
2022/08/04 00:19:26;;;;;;;2.70;2.45;;;19.40;70.80;;;;;;5054000;28;20620;-86
2022/08/04 00:21:59;;;;;;;3.88;2.45;;;19.30;70.30;;;;;;5013864;28;20781;-86
2022/08/04 00:24:30;;;;;;;3.08;2.78;;;19.40;70.90;;;;;;5045115;28;20613;-87
2022/08/04 00:26:57;;;;;;;3.10;2.60;;;19.50;68.80;;;;;;5047405;28;20671;-87
2022/08/04 00:29:26;;;;;;;4.55;2.30;;;19.50;67.80;;;;;;5045651;28;20206;-87
2022/08/04 00:31:55;;;;;;;4.68;2.50;;;19.40;68.40;;;;;;5039605;28;20228;-86
2022/08/04 00:34:25;;;;;;;4.28;2.60;;;19.40;70.90;;;;;;5053121;28;20222;-88
2022/08/04 00:36:54;;;;;;;3.15;2.88;;;19.40;69.70;;;;;;5052296;28;20263;-89
2022/08/04 00:39:22;;;;;;;3.03;2.38;;;19.30;70.10;;;;;;5023110;28;20365;-89
2022/08/04 00:42:10;;;;;;;3.15;2.55;;;19.20;69.90;;;;;;5045396;28;20212;-88
2022/08/04 00:44:47;;;;;;;4.03;2.30;;;19.20;71.70;;;;;;5053977;28;20618;-87
2022/08/04 00:47:34;;;;;;;2.92;2.50;;;19.20;71.60;;;;;;5041159;28;20201;-88
2022/08/04 00:50:12;;;;;;;2.92;2.63;;;19.10;72.00;;;;;;5054908;28;20289;-88
2022/08/04 00:52:56;;;;;;;3.28;2.40;;;19.10;71.60;;;;;;5021441;28;20198;-88
2022/08/04 00:55:59;;;;;;;3.45;2.50;;;19.00;73.30;;;;;;5048705;28;20208;-88
2022/08/04 00:58:42;;;;;;;3.33;2.65;;;19.00;73.90;;;;;;5030714;28;20194;-88
2022/08/04 01:01:18;;;;;;;4.18;2.50;;;19.10;73.80;;;;;;5033732;28;20657;-88
2022/08/04 01:03:53;;;;;;;6.60;2.78;;;19.10;74.90;;;;;;5041844;28;20206;-88
2022/08/04 01:06:30;;;;;;;3.20;2.80;;;19.00;74.10;;;;;;5032031;28;20222;-89
2022/08/04 01:09:40;;;;;;;4.85;2.92;;;18.90;75.60;;;;;;5025659;28;20198;-88
2022/08/04 01:12:26;;;;;;;3.15;2.63;;;18.90;76.60;;;;;;5035546;28;20676;-88
2022/08/04 01:15:05;;;;;;;3.60;2.50;;;18.80;75.80;;;;;;5042090;28;20201;-88
2022/08/04 01:17:45;;;;;;;4.40;2.47;;;18.80;75.70;;;;;;5056283;28;20663;-88
2022/08/04 01:20:20;;;;;;;5.25;2.45;;;18.90;76.30;;;;;;5023352;28;20198;-89
2022/08/04 01:23:19;;;;;;;5.30;2.60;;;18.80;75.80;;;;;;5049028;28;20208;-89
2022/08/04 01:26:23;;;;;;;4.43;2.58;;;18.80;75.50;;;;;;5035984;28;20230;-88
2022/08/04 01:29:10;;;;;;;2.70;2.50;;;18.70;75.90;;;;;;5030569;28;20205;-88
2022/08/04 01:31:56;;;;;;;5.70;2.58;;;18.70;76.00;;;;;;5037847;28;20262;-88
2022/08/04 01:34:23;;;;;;;7.47;2.55;;;18.60;76.80;;;;;;5038326;28;20206;-88
2022/08/04 01:36:59;;;;;;;4.70;2.60;;;18.60;77.10;;;;;;5047302;28;20206;-88
2022/08/04 01:39:43;;;;;;;4.70;2.45;;;18.60;77.40;;;;;;5045664;28;20661;-88
2022/08/04 01:42:11;;;;;;;5.43;2.50;;;18.60;77.50;;;;;;5036604;28;20206;-88
2022/08/04 01:44:41;;;;;;;4.40;2.50;;;18.50;78.30;;;;;;5035737;28;20289;-88
2022/08/04 01:47:09;;;;;;;4.20;2.55;;;18.50;78.70;;;;;;5039295;28;20642;-88
2022/08/04 01:49:38;;;;;;;2.63;2.38;;;18.40;78.50;;;;;;5046253;28;20735;-88
2022/08/04 01:52:08;;;;;;;3.70;2.47;;;18.30;78.90;;;;;;5052809;28;20213;-88
2022/08/04 01:54:38;;;;;;;4.03;2.20;;;18.30;79.50;;;;;;5035681;28;20203;-88
2022/08/04 01:57:05;;;;;;;2.60;2.40;;;18.30;79.50;;;;;;5037110;28;20211;-88
2022/08/04 01:59:36;;;;;;;2.95;2.60;;;18.20;79.50;;;;;;5027600;28;20198;-88
2022/08/04 02:02:04;;;;;;;3.90;2.58;;;18.40;79.50;;;;;;5050693;28;20241;-89
2022/08/04 02:04:32;;;;;;;8.23;2.50;;;18.60;79.10;;;;;;5038601;28;20711;-88
2022/08/04 02:07:13;;;;;;;3.38;2.58;;;18.70;77.50;;;;;;5056064;28;20237;-87
2022/08/04 02:09:52;;;;;;;2.40;2.20;;;18.80;77.00;;;;;;5051965;28;20205;-90
2022/08/04 02:12:27;;;;;;;5.38;2.20;;;18.60;77.40;;;;;;5035402;28;20265;-89
2022/08/04 02:14:59;;;;;;;2.60;2.40;;;18.40;78.70;;;;;;5054464;28;20204;-89
2022/08/04 02:17:31;;;;;;;3.08;2.50;;;18.30;79.60;;;;;;5051238;28;20285;-90
2022/08/04 02:20:08;;;;;;;2.65;2.45;;;18.30;79.60;;;;;;5050336;28;20202;-89
2022/08/04 02:22:47;;;;;;;4.03;2.90;;;18.20;79.50;;;;;;5036090;28;20589;-88
2022/08/04 02:25:25;;;;;;;2.70;2.50;;;18.20;79.50;;;;;;5054991;28;20226;-89
2022/08/04 02:28:07;;;;;;;3.83;2.63;;;18.20;79.60;;;;;;5037311;28;20210;-89
2022/08/04 02:30:40;;;;;;;2.67;2.33;;;18.30;79.60;;;;;;5035279;28;20210;-89
2022/08/04 02:33:13;;;;;;;5.30;2.50;;;18.40;79.70;;;;;;5034972;28;20300;-89
2022/08/04 02:35:43;;;;;;;2.72;2.42;;;18.50;79.80;;;;;;5040437;28;20209;-89
2022/08/04 02:38:21;;;;;;;4.35;2.35;;;18.50;79.80;;;;;;5034829;28;20576;-90
2022/08/04 02:40:48;;;;;;;3.10;2.78;;;18.60;79.80;;;;;;5054726;28;20205;-90
2022/08/04 02:43:19;;;;;;;2.60;2.40;;;18.50;79.80;;;;;;5040475;28;20206;-89
2022/08/04 02:45:48;;;;;;;2.58;2.38;;;18.40;79.70;;;;;;5021605;28;20222;-88
2022/08/04 02:48:18;;;;;;;3.95;2.80;;;18.40;79.70;;;;;;5047875;28;20205;-89
2022/08/04 02:50:47;;;;;;;3.38;2.60;;;18.50;79.80;;;;;;5032493;28;20209;-89
2022/08/04 02:53:18;;;;;;;3.42;2.60;;;18.40;79.70;;;;;;5034324;28;20580;-90
2022/08/04 02:55:45;;;;;;;3.15;2.75;;;18.40;79.70;;;;;;5034972;28;20210;-89
2022/08/04 02:58:15;;;;;;;2.88;2.67;;;18.30;79.70;;;;;;5034174;28;20260;-89
2022/08/04 03:00:44;;;;;;;2.70;2.50;;;18.20;79.50;;;;;;5034542;28;20712;-89
2022/08/04 03:03:21;;;;;;;3.08;2.78;;;18.10;81.60;;;;;;5034653;28;20577;-89
2022/08/04 03:06:10;;;;;;;3.70;2.67;;;18.00;82.00;;;;;;5031216;28;20222;-89
2022/08/04 03:08:55;;;;;;;4.07;2.60;;;17.80;83.10;;;;;;5025755;28;20209;-89
2022/08/04 03:11:40;;;;;;;4.25;2.90;;;17.80;83.50;;;;;;5034534;28;20218;-89
2022/08/04 03:14:47;;;;;;;3.05;2.70;;;17.90;83.60;;;;;;5034420;28;20229;-90
2022/08/04 03:17:36;;;;;;;6.85;2.90;;;17.90;83.30;;;;;;4992791;28;20648;-89
2022/08/04 03:20:37;;;;;;;3.28;2.80;;;18.00;82.30;;;;;;4992506;28;20678;-89
2022/08/04 03:23:41;;;;;;;3.42;2.72;;;18.00;81.80;;;;;;4992745;28;20210;-89
2022/08/04 03:26:44;;;;;;;4.50;2.47;;;18.00;81.20;;;;;;4934540;29;20229;-89
2022/08/04 03:29:48;;;;;;;3.15;2.58;;;18.00;82.40;;;;;;4859775;29;20208;-89
2022/08/04 03:32:45;;;;;;;3.70;2.60;;;17.90;81.40;;;;;;4859174;29;20224;-89
2022/08/04 03:35:42;;;;;;;3.17;2.85;;;17.80;83.90;;;;;;4858689;29;20205;-90
2022/08/04 03:38:31;;;;;;;2.95;2.65;;;17.70;83.90;;;;;;4804610;29;20345;-89
2022/08/04 03:41:28;;;;;;;3.05;2.67;;;17.60;85.40;;;;;;4804669;29;20239;-89
2022/08/04 03:44:27;;;;;;;3.88;2.90;;;17.50;86.00;;;;;;4804653;29;20218;-89
2022/08/04 03:47:12;;;;;;;4.78;3.25;;;17.40;86.50;;;;;;4804276;29;20699;-90
2022/08/04 03:50:06;;;;;;;5.38;3.00;;;17.40;87.20;;;;;;4805881;29;20734;-89
2022/08/04 03:53:11;;;;;;;4.20;2.90;;;17.40;86.20;;;;;;4794092;29;20579;-89
2022/08/04 03:56:10;;;;;;;4.25;2.92;;;17.40;86.70;;;;;;4859246;29;20216;-89
2022/08/04 03:59:04;;;;;;;5.65;2.97;;;17.50;87.70;;;;;;4858711;29;20239;-89
2022/08/04 04:01:56;;;;;;;4.20;3.03;;;17.40;87.40;;;;;;4864685;29;20268;-89
2022/08/04 04:04:46;;;;;;;3.92;3.00;;;17.30;86.80;;;;;;4899240;29;21508;-89
2022/08/04 04:07:41;;;;;;;5.20;2.90;;;17.50;87.30;;;;;;4975385;28;20231;-90
2022/08/04 04:10:21;;;;;;;2.78;2.58;;;17.60;86.20;;;;;;4933697;29;20306;-89
2022/08/04 04:13:17;;;;;;;3.00;2.67;;;17.70;86.50;;;;;;4920707;29;20207;-89
2022/08/04 04:16:17;;;;;;;3.10;2.80;;;17.80;85.20;;;;;;4964186;28;20676;-89
2022/08/04 04:19:14;;;;;;;4.00;2.72;;;17.70;84.30;;;;;;4902173;29;20207;-90
2022/08/04 04:22:06;;;;;;;4.25;2.70;;;17.70;85.00;;;;;;4885544;29;20679;-89
2022/08/04 04:24:54;;;;;;;6.10;3.00;;;17.80;85.00;;;;;;4896005;29;20697;-89
2022/08/04 04:27:36;;;;;;;4.13;3.22;;;17.70;85.10;;;;;;4895532;29;20223;-90
2022/08/04 04:30:06;;;;;;;3.22;2.95;;;17.60;86.80;;;;;;4895932;29;20753;-89
2022/08/04 04:32:46;;;;;;;3.33;2.83;;;17.70;86.30;;;;;;4895902;29;20729;-89
2022/08/04 04:35:25;;;;;;;4.57;2.90;;;17.70;86.60;;;;;;4895436;29;20237;-89
2022/08/04 04:38:15;;;;;;;2.92;2.65;;;17.60;87.00;;;;;;4895282;29;20219;-90
2022/08/04 04:40:56;;;;;;;3.90;2.95;;;17.70;87.40;;;;;;4895721;29;20211;-89
2022/08/04 04:44:01;;;;;;;6.18;2.97;;;17.80;86.30;;;;;;4894839;29;20694;-89
2022/08/04 04:46:36;;;;;;;5.18;3.03;;;17.80;86.10;;;;;;4908984;28;20216;-89
2022/08/04 04:49:11;;;;;;;3.55;2.95;;;17.90;86.40;;;;;;4971255;28;20208;-90
2022/08/04 04:51:44;;;;;;;5.72;2.92;;;18.00;85.50;;;;;;4971626;28;20710;-89
2022/08/04 04:54:20;;;;;;;7.00;2.95;;;18.20;85.10;;;;;;4972025;28;20209;-89
2022/08/04 04:57:00;;;;;;;2.90;2.70;;;18.20;84.30;;;;;;5024265;28;20584;-89
2022/08/04 04:59:34;;;;;;;4.45;3.05;;;18.10;84.70;;;;;;5024796;28;20214;-89
2022/08/04 05:02:32;;;;;;;5.70;2.88;;;18.00;87.30;;;;;;5032695;28;20210;-89
2022/08/04 05:05:27;;;;;;;3.75;3.10;;;18.10;86.20;;;;;;5031805;28;20213;-90
2022/08/04 05:08:23;;;;;;;3.38;3.08;;;18.10;85.50;;;;;;5020223;28;20688;-89
2022/08/04 05:11:08;;;;;;;3.17;2.90;;;18.20;84.00;;;;;;4971326;28;20201;-89
2022/08/04 05:13:40;;;;;;;4.05;2.75;;;18.30;84.40;;;;;;4969231;28;20208;-89
2022/08/04 05:16:15;;;;;;;10.30;5.65;;;18.30;83.30;;;;;;4971169;28;20208;-86
2022/08/04 05:18:44;;;;;;;4.32;3.33;;;18.50;83.50;;;;;;4971789;28;20339;-86
2022/08/04 05:21:25;;;;;;;4.65;3.22;;;18.70;83.80;;;;;;4958267;28;20334;-87
2022/08/04 05:24:03;;;;;;;3.65;3.00;;;18.90;82.10;;;;;;4972086;28;20212;-87
2022/08/04 05:26:33;;;;;;;5.90;3.55;;;19.00;80.90;;;;;;4971937;28;20228;-87
2022/08/04 05:29:06;;;;;;;6.03;3.88;;;19.10;80.20;;;;;;4973519;28;20686;-86
2022/08/04 05:31:39;;;;;;;5.25;4.00;;;19.30;80.30;;;;;;4973666;28;20607;-87
2022/08/04 05:34:09;;;;;;;5.32;3.75;;;19.60;77.80;;;;;;4971578;28;20664;-86
2022/08/04 05:36:40;;;;;;;5.15;3.58;;;20.10;75.20;;;;;;4972583;28;20280;-86
2022/08/04 05:39:12;;;;;;;6.00;4.78;;;20.20;72.80;;;;;;4972744;28;20228;-86
2022/08/04 05:41:40;;;;;;;7.75;4.97;;;20.20;71.30;;;;;;4972835;28;20248;-86
2022/08/04 05:44:09;;;;;;;6.55;5.03;;;20.20;70.70;;;;;;4974556;28;20216;-86
2022/08/04 05:46:38;;;;;;;8.77;5.93;;;20.10;71.60;;;;;;4974722;28;20591;-86
2022/08/04 05:49:10;;;;;;;3.83;3.53;;;20.00;72.90;;;;;;5034627;28;20249;-88
2022/08/04 05:51:39;;;;;;;3.90;3.50;;;19.90;70.70;;;;;;5032944;28;20229;-86
2022/08/04 05:54:09;;;;;;;5.75;3.22;;;20.00;70.80;;;;;;5033718;28;20220;-87
2022/08/04 05:56:37;;;;;;;5.60;5.10;;;20.00;70.90;;;;;;5036317;28;20202;-86
2022/08/04 05:59:05;;;;;;;10.48;7.97;;;20.10;70.10;;;;;;5041110;28;20202;-87
2022/08/04 06:01:34;;;;;;;3.60;3.00;;;20.40;68.20;;;;;;5044923;28;20209;-87
2022/08/04 06:04:03;;;;;;;6.60;5.95;;;20.60;62.50;;;;;;5035545;28;20643;-88
2022/08/04 06:06:30;;;;;;;8.55;5.95;;;20.80;62.90;;;;;;5035345;28;20225;-88
2022/08/04 06:08:57;;;;;;;8.65;6.90;;;21.00;62.40;;;;;;5033478;28;20210;-87
2022/08/04 06:11:27;;;;;;;6.88;5.15;;;21.10;62.70;;;;;;5018485;28;20207;-87
2022/08/04 06:13:57;;;;;;;7.90;5.85;;;21.10;61.40;;;;;;5033086;28;20265;-87
2022/08/04 06:16:28;;;;;;;8.93;3.70;;;21.00;61.30;;;;;;5035686;28;20210;-87
2022/08/04 06:19:00;;;;;;;4.90;3.20;;;21.10;62.30;;;;;;5035704;28;20202;-88
2022/08/04 06:21:37;;;;;;;5.57;3.20;;;21.10;63.20;;;;;;5035773;28;20736;-89
2022/08/04 06:24:09;;;;;;;5.68;3.10;;;21.00;62.50;;;;;;5038858;28;20212;-86
2022/08/04 06:26:37;;;;;;;3.95;3.00;;;21.10;60.60;;;;;;5038743;28;20218;-86
2022/08/04 06:29:04;;;;;;;3.03;2.70;;;21.20;64.60;;;;;;5036024;28;20207;-87
2022/08/04 06:31:45;;;;;;;5.57;3.75;;;21.30;64.00;;;;;;5035590;28;20199;-88
2022/08/04 06:34:14;;;;;;;3.65;3.03;;;21.40;61.80;;;;;;5035657;28;20256;-88
2022/08/04 06:36:43;;;;;;;4.13;3.22;;;21.40;59.20;;;;;;5035775;28;20210;-87
2022/08/04 06:39:11;;;;;;;5.13;3.33;;;21.50;57.30;;;;;;5035303;28;20214;-86
2022/08/04 06:41:38;;;;;;;5.28;3.85;;;21.70;57.50;;;;;;5029061;28;20212;-88
2022/08/04 06:44:09;;;;;;;3.42;3.13;;;21.90;57.20;;;;;;5026980;28;20203;-87
2022/08/04 06:46:38;;;;;;;5.32;3.72;;;21.90;56.10;;;;;;5035382;28;20322;-88
2022/08/04 06:49:05;;;;;;;5.18;3.30;;;22.10;55.20;;;;;;5046389;28;20209;-87
2022/08/04 06:51:34;;;;;;;8.00;3.28;;;22.20;55.20;;;;;;5038087;28;20199;-87
2022/08/04 06:54:03;;;;;;;8.02;3.13;;;22.20;55.00;;;;;;5035095;28;20650;-87
2022/08/04 06:56:31;;;;;;;6.00;3.10;;;22.30;54.60;;;;;;5031661;28;20217;-87
2022/08/04 06:59:04;;;;;;;4.53;3.22;;;22.40;53.70;;;;;;5022987;28;20207;-87
2022/08/04 07:01:32;;;;;;;3.20;2.90;;;22.50;52.10;;;;;;5027257;28;20626;-88
2022/08/04 07:03:59;;;;;;;4.47;3.22;;;22.60;51.40;;;;;;5034890;28;20674;-88
2022/08/04 07:06:26;;;;;;;3.30;3.00;;;22.70;51.90;;;;;;5034398;28;20238;-88
2022/08/04 07:08:55;;;;;;;4.13;3.28;;;22.80;51.70;;;;;;5020750;28;20214;-88
2022/08/04 07:11:23;;;;;;;4.20;3.50;;;22.90;51.20;;;;;;5034016;28;20207;-86
2022/08/04 07:13:51;;;;;;;5.00;3.40;;;23.00;50.20;;;;;;5020783;28;20222;-88
2022/08/04 07:16:20;;;;;;;4.47;3.00;;;23.10;48.90;;;;;;5034505;28;20206;-88
2022/08/04 07:18:47;;;;;;;3.53;3.10;;;23.40;48.60;;;;;;5034930;28;20582;-84
2022/08/04 07:21:21;;;;;;;2.75;2.55;;;23.60;47.90;;;;;;5040022;28;20205;-84
2022/08/04 07:23:48;;;;;;;5.13;3.03;;;23.80;47.20;;;;;;5040531;28;20222;-84
2022/08/04 07:26:17;;;;;;;5.65;3.58;;;23.90;47.90;;;;;;5038132;28;20232;-86
2022/08/04 07:28:46;;;;;;;7.15;3.17;;;24.00;47.40;;;;;;5040054;28;20198;-85
2022/08/04 07:31:16;;;;;;;9.30;2.78;;;24.00;42.50;;;;;;5039937;28;20199;-85
2022/08/04 07:33:44;;;;;;;3.83;2.70;;;23.90;39.30;;;;;;5040270;28;20238;-84
2022/08/04 07:36:12;;;;;;;3.63;3.13;;;23.90;36.40;;;;;;5039880;28;20234;-84
2022/08/04 07:38:40;;;;;;;2.67;2.47;;;24.10;35.50;;;;;;5039163;28;20218;-85
2022/08/04 07:41:07;;;;;;;3.22;2.90;;;24.30;35.90;;;;;;5024540;28;20285;-84
2022/08/04 07:43:37;;;;;;;3.55;2.50;;;24.30;35.70;;;;;;5038915;28;20209;-85
2022/08/04 07:46:05;;;;;;;2.80;2.60;;;24.50;35.80;;;;;;5039210;28;20692;-85
2022/08/04 07:48:32;;;;;;;5.35;2.80;;;24.50;35.80;;;;;;5037881;28;20222;-85
2022/08/04 07:51:00;;;;;;;2.97;2.60;;;24.60;35.90;;;;;;5037924;28;20589;-85
2022/08/04 07:53:28;;;;;;;3.10;2.72;;;24.80;32.90;;;;;;5037335;28;20206;-84
2022/08/04 07:55:55;;;;;;;2.88;2.65;;;24.90;32.80;;;;;;5036325;28;20210;-85
2022/08/04 07:58:22;;;;;;;2.75;2.38;;;24.90;32.70;;;;;;5036153;28;20213;-85
2022/08/04 08:00:50;;;;;;;4.05;2.72;;;25.00;33.30;;;;;;5036471;28;20285;-86
2022/08/04 08:03:19;;;;;;;3.53;2.70;;;25.10;33.60;;;;;;5035374;28;20237;-85
2022/08/04 08:05:46;;;;;;;3.15;2.85;;;25.20;33.70;;;;;;5032133;28;20203;-82
2022/08/04 08:08:14;;;;;;;3.08;2.85;;;25.20;32.30;;;;;;5028757;28;20230;-82
2022/08/04 08:10:46;;;;;;;4.68;2.90;;;25.30;34.00;;;;;;5039155;28;20234;-82
2022/08/04 08:13:13;;;;;;;3.60;2.60;;;25.40;32.90;;;;;;5037253;28;20206;-82
2022/08/04 08:15:46;;;;;;;3.55;2.85;;;25.50;31.80;;;;;;5037505;28;20207;-82
2022/08/04 08:18:13;;;;;;;3.17;2.58;;;25.60;29.50;;;;;;5036828;28;20210;-82
2022/08/04 08:20:44;;;;;;;3.75;3.08;;;25.60;30.70;;;;;;5037682;28;20205;-82
2022/08/04 08:23:11;;;;;;;5.32;3.10;;;25.70;29.80;;;;;;5038046;28;20237;-83
2022/08/04 08:25:39;;;;;;;3.17;2.65;;;25.70;30.20;;;;;;5037435;28;20208;-83
2022/08/04 08:28:06;;;;;;;3.28;3.00;;;25.80;28.00;;;;;;5037278;28;20221;-83
2022/08/04 08:30:34;;;;;;;3.15;2.85;;;25.90;28.20;;;;;;5036550;28;20199;-83
2022/08/04 08:33:03;;;;;;;3.50;2.80;;;26.10;28.90;;;;;;5033211;28;20227;-83
2022/08/04 08:35:47;;;;;;;3.55;2.88;;;26.30;28.10;;;;;;5033503;28;20198;-82
2022/08/04 08:38:16;;;;;;;2.80;2.60;;;26.40;27.00;;;;;;5027938;28;20650;-81
2022/08/04 08:40:50;;;;;;;4.18;2.83;;;26.50;28.40;;;;;;5028480;28;20210;-82
2022/08/04 08:43:31;;;;;;;5.32;3.10;;;26.50;27.00;;;;;;5034105;28;20204;-81
2022/08/04 08:46:23;;;;;;;4.55;2.70;;;26.70;26.20;;;;;;5034918;28;20210;-81
2022/08/04 08:49:09;;;;;;;3.75;2.90;;;26.90;24.90;;;;;;5024725;28;20229;-83
2022/08/04 08:51:49;;;;;;;4.38;2.83;;;27.20;23.70;;;;;;5023413;28;20650;-83
2022/08/04 08:55:04;;;;;;;3.95;2.90;;;27.70;23.70;;;;;;5034173;28;20684;-88
2022/08/04 08:57:50;;;;;;;3.00;2.70;;;28.70;23.10;;;;;;4925796;29;20210;-84
2022/08/04 09:00:23;;;;;;;4.40;2.80;;;30.40;18.80;;;;;;4932519;29;20619;-87
2022/08/04 09:03:21;;;;;;;3.15;2.83;;;32.10;17.00;;;;;;4933223;29;20214;-88
2022/08/04 09:06:15;;;;;;;3.33;2.78;;;33.80;11.50;;;;;;4933717;29;20206;-84
2022/08/04 09:09:00;;;;;;;2.90;2.78;;;35.70;8.30;;;;;;4938769;29;20229;-84
2022/08/04 09:11:32;;;;;;;3.75;3.20;;;37.50;5.70;;;;;;4951264;29;20216;-87
2022/08/04 09:14:05;;;;;;;3.65;3.30;;;38.00;5.80;;;;;;4941888;29;20201;-85
2022/08/04 09:16:40;;;;;;;4.45;3.90;;;38.60;4.20;;;;;;4940951;29;20216;-84
2022/08/04 09:19:15;;;;;;;3.90;3.60;;;38.50;3.00;;;;;;4939798;29;20209;-86
2022/08/04 09:21:51;;;;;;;5.13;3.97;;;38.60;3.40;;;;;;4935097;29;20240;-88
2022/08/04 09:24:35;;;;;;;4.38;4.07;;;38.70;2.30;;;;;;4938379;29;21893;-87
2022/08/04 09:27:08;;;;;;;4.80;4.47;;;38.60;3.60;;;;;;4940771;29;20235;-85
2022/08/04 09:29:46;;;;;;;7.45;4.63;;;39.20;1.70;;;;;;4942101;29;20209;-84
2022/08/04 09:32:42;;;;;;;5.00;4.60;;;40.00;2.10;;;;;;4996473;28;20232;-85
2022/08/04 09:35:23;;;;;;;5.32;5.00;;;39.20;1.70;;;;;;5033407;28;20204;-85
2022/08/04 09:38:01;;;;;;;6.00;5.60;;;39.20;1.70;;;;;;5045287;28;20224;-85
2022/08/04 09:40:36;;;;;;;5.80;5.40;;;39.10;1.60;;;;;;5042611;28;20264;-86
2022/08/04 09:43:13;;;;;;;6.15;5.60;;;39.80;2.00;;;;;;5031468;28;20213;-86
2022/08/04 09:45:46;;;;;;;6.05;5.60;;;39.30;1.70;;;;;;5044284;28;20207;-85
2022/08/04 09:48:20;;;;;;;6.00;5.60;;;39.60;1.90;;;;;;5042262;28;20244;-88
2022/08/04 09:50:56;;;;;;;6.80;6.35;;;39.10;1.60;;;;;;5036083;28;20209;-87
2022/08/04 09:53:37;;;;;;;8.88;8.27;;;39.50;3.10;;;;;;5039651;28;20655;-88
2022/08/04 09:56:13;;;;;;;7.30;6.57;;;39.90;2.00;;;;;;5034235;28;20222;-87
2022/08/04 09:58:53;;;;;;;8.40;7.72;;;40.10;1.10;;;;;;5040812;28;20201;-87
2022/08/04 10:01:24;;;;;;;8.70;7.32;;;40.60;1.00;;;;;;5032810;28;20204;-87
2022/08/04 10:03:55;;;;;;;7.25;6.68;;;41.30;1.00;;;;;;5037273;28;20208;-87
2022/08/04 10:06:38;;;;;;;7.10;6.47;;;41.00;1.00;;;;;;5024800;28;20210;-87
2022/08/04 10:09:17;;;;;;;7.43;6.72;;;39.90;2.00;;;;;;5033122;28;20222;-87
2022/08/04 10:12:03;;;;;;;7.20;6.80;;;40.30;2.20;;;;;;5033623;28;20582;-87
2022/08/04 10:14:40;;;;;;;9.20;8.27;;;40.00;3.60;;;;;;5024067;28;20577;-87
2022/08/04 10:17:31;;;;;;;7.78;7.28;;;39.50;2.80;;;;;;5038867;28;20201;-87
2022/08/04 10:20:08;;;;;;;8.35;7.75;;;39.80;2.90;;;;;;5027851;28;20650;-87
2022/08/04 10:22:39;;;;;;;7.90;7.40;;;39.70;1.90;;;;;;5032770;28;20209;-87
2022/08/04 10:25:21;;;;;;;7.88;7.38;;;39.30;1.60;;;;;;5030815;28;20218;-87
2022/08/04 10:27:54;;;;;;;8.13;7.63;;;39.10;1.60;;;;;;5030874;28;20681;-87
2022/08/04 10:30:22;;;;;;;7.20;6.70;;;38.50;1.80;;;;;;5026910;28;20205;-88
2022/08/04 10:32:55;;;;;;;7.00;6.50;;;38.00;1.10;;;;;;5039614;28;20231;-86
2022/08/04 10:35:25;;;;;;;6.80;6.20;;;38.70;1.80;;;;;;5036539;28;20228;-88
2022/08/04 10:38:01;;;;;;;6.60;6.20;;;38.60;1.40;;;;;;5037678;28;20227;-85
2022/08/04 10:40:36;;;;;;;7.05;6.55;;;38.10;3.10;;;;;;5019634;28;20233;-85
2022/08/04 10:48:11;;;;;;;5.20;4.90;;;37.00;2.40;;;;;;5055452;28;20221;-85
2022/08/04 10:50:44;;;;;;;4.70;4.30;;;37.70;2.20;;;;;;5047783;28;20522;-85
2022/08/04 10:53:17;;;;;;;4.68;4.38;;;38.20;1.20;;;;;;5049893;28;20201;-85
2022/08/04 10:56:03;;;;;;;4.50;4.10;;;38.10;1.10;;;;;;5059432;28;20202;-85
2022/08/04 10:58:36;;;;;;;4.22;3.80;;;38.60;1.00;;;;;;5050275;28;20585;-84
2022/08/04 11:01:17;;;;;;;4.47;4.10;;;39.30;1.70;;;;;;5057569;28;20198;-85
2022/08/04 11:03:52;;;;;;;4.22;3.83;;;38.60;1.40;;;;;;5063581;28;20228;-85
2022/08/04 11:06:19;;;;;;;4.70;4.40;;;37.50;1.90;;;;;;5054110;28;20197;-85
2022/08/04 11:08:54;;;;;;;5.68;4.10;;;37.40;1.90;;;;;;5059340;28;20229;-85
2022/08/04 11:11:29;;;;;;;4.50;4.10;;;36.70;5.00;;;;;;5051665;28;20216;-84
2022/08/04 11:14:02;;;;;;;5.63;3.78;;;36.50;5.00;;;;;;5043193;28;20205;-86
2022/08/04 11:16:41;;;;;;;4.45;3.35;;;35.90;2.60;;;;;;5044141;28;20229;-85
2022/08/04 11:19:18;;;;;;;4.75;3.13;;;35.40;3.20;;;;;;5051430;28;20667;-86
2022/08/04 11:22:00;;;;;;;2.95;2.72;;;35.50;7.20;;;;;;5055965;28;20239;-86
2022/08/04 11:24:50;;;;;;;3.08;2.80;;;35.30;4.50;;;;;;5053001;28;20202;-86
2022/08/04 11:27:43;;;;;;;5.63;2.60;;;34.90;5.80;;;;;;5053684;28;20204;-86
2022/08/04 11:30:12;;;;;;;5.40;2.70;;;34.70;7.00;;;;;;5045629;28;20237;-87
2022/08/04 11:32:50;;;;;;;3.60;2.63;;;34.70;6.90;;;;;;5054160;28;20219;-84
2022/08/04 11:35:34;;;;;;;5.82;2.88;;;34.30;5.80;;;;;;5054421;28;20208;-86
2022/08/04 11:38:12;;;;;;;5.78;2.47;;;34.10;6.10;;;;;;5054545;28;20205;-84
2022/08/04 11:40:49;;;;;;;3.40;2.40;;;33.90;6.90;;;;;;5055860;28;20292;-84
2022/08/04 11:43:29;;;;;;;5.55;3.60;;;34.10;7.10;;;;;;5042356;28;20197;-84
2022/08/04 11:46:01;;;;;;;4.88;2.70;;;34.20;5.10;;;;;;5056097;28;20194;-84
2022/08/04 11:48:52;;;;;;;2.85;2.65;;;34.00;5.60;;;;;;5056978;28;20691;-84
2022/08/04 11:51:41;;;;;;;2.92;2.60;;;34.10;6.00;;;;;;5056801;28;20197;-84
2022/08/04 11:54:21;;;;;;;2.95;2.40;;;34.20;5.70;;;;;;5056415;28;20277;-84
2022/08/04 11:56:56;;;;;;;2.85;2.60;;;34.30;7.20;;;;;;5042804;28;20212;-84
2022/08/04 11:59:29;;;;;;;5.60;2.63;;;34.30;5.80;;;;;;5040152;28;20204;-83
2022/08/04 13:27:27;;;;;;;2.78;2.35;;;33.50;7.30;;;;;;5058242;28;20252;-84
2022/08/04 13:43:24;;;;;;;5.28;2.85;;;33.40;6.00;;;;;;5051428;28;20236;-85
2022/08/04 13:45:58;;;;;;;2.85;2.20;;;33.30;6.60;;;;;;5054219;28;20209;-83
2022/08/04 13:48:25;;;;;;;4.78;2.47;;;33.30;6.70;;;;;;5054357;28;20221;-84
2022/08/04 13:50:53;;;;;;;2.55;2.33;;;33.20;6.70;;;;;;5051011;28;20567;-83
2022/08/04 13:53:20;;;;;;;2.95;2.67;;;33.20;6.70;;;;;;5057105;28;20214;-84
2022/08/04 13:55:48;;;;;;;2.65;2.45;;;33.10;7.60;;;;;;5058404;28;20216;-84
2022/08/04 13:58:24;;;;;;;2.60;2.40;;;33.10;8.10;;;;;;5054311;28;20197;-84
2022/08/04 14:00:59;;;;;;;6.60;2.75;;;33.10;7.70;;;;;;5051740;28;20205;-84
2022/08/04 14:03:31;;;;;;;2.58;2.38;;;33.00;7.30;;;;;;5052446;28;20201;-83
2022/08/04 14:06:19;;;;;;;4.70;2.78;;;33.10;7.80;;;;;;5050728;28;20198;-84
2022/08/04 14:08:55;;;;;;;2.72;2.53;;;33.10;8.00;;;;;;5053539;28;20217;-82
2022/08/04 14:11:35;;;;;;;8.13;2.60;;;33.00;6.60;;;;;;5051552;28;20216;-84
2022/08/04 14:14:14;;;;;;;3.65;2.30;;;33.00;8.20;;;;;;5053069;28;21414;-83
2022/08/04 14:16:55;;;;;;;5.10;2.47;;;32.80;7.80;;;;;;5050864;28;20672;-84
2022/08/04 14:19:22;;;;;;;4.45;2.70;;;32.80;7.70;;;;;;5048443;28;20569;-85
2022/08/04 14:21:49;;;;;;;3.90;2.67;;;32.80;7.70;;;;;;5051987;28;20212;-85
2022/08/04 14:24:24;;;;;;;3.75;2.90;;;32.90;7.70;;;;;;5054534;28;20198;-85
2022/08/04 14:26:52;;;;;;;2.53;2.33;;;32.90;7.20;;;;;;5058343;28;20259;-83
2022/08/04 14:29:20;;;;;;;5.18;2.58;;;33.00;7.80;;;;;;5054761;28;20249;-83
2022/08/04 14:31:50;;;;;;;3.22;2.58;;;33.00;8.50;;;;;;5058704;28;20248;-85
2022/08/04 14:34:26;;;;;;;4.50;2.70;;;33.00;7.50;;;;;;5054686;28;20201;-83
2022/08/04 14:36:54;;;;;;;5.32;4.82;;;33.00;7.30;;;;;;5054631;28;20235;-84
2022/08/04 14:39:36;;;;;;;3.33;2.70;;;33.00;7.70;;;;;;5055951;28;20213;-83
2022/08/04 14:42:04;;;;;;;5.65;2.88;;;32.90;8.30;;;;;;5056170;28;20236;-84
2022/08/04 14:44:51;;;;;;;2.83;2.30;;;32.80;8.40;;;;;;5050113;28;20304;-87
2022/08/04 14:47:18;;;;;;;3.53;3.22;;;32.60;9.20;;;;;;5054717;28;20214;-84
2022/08/04 14:49:54;;;;;;;2.90;2.60;;;32.70;8.00;;;;;;5057596;28;20230;-84
2022/08/04 14:52:24;;;;;;;3.08;2.75;;;32.70;8.30;;;;;;5053570;28;20205;-85
2022/08/04 14:54:52;;;;;;;2.90;2.40;;;32.80;8.40;;;;;;5051679;28;20255;-86
2022/08/04 14:57:18;;;;;;;5.68;2.80;;;32.60;8.30;;;;;;5055799;28;20571;-84
2022/08/04 14:59:49;;;;;;;4.05;2.58;;;32.50;9.10;;;;;;5050100;28;20212;-84
2022/08/04 15:02:16;;;;;;;5.40;2.72;;;32.50;8.80;;;;;;5054748;28;20737;-84
2022/08/04 15:04:45;;;;;;;3.55;2.58;;;32.60;8.40;;;;;;5056784;28;20660;-86
2022/08/04 15:07:12;;;;;;;4.30;2.70;;;32.60;8.30;;;;;;5057254;28;20214;-86
2022/08/04 15:09:41;;;;;;;3.97;2.90;;;32.60;8.30;;;;;;5052368;28;20225;-84
2022/08/04 15:12:08;;;;;;;3.70;2.58;;;32.70;8.20;;;;;;5051506;28;20209;-83
2022/08/04 15:14:35;;;;;;;2.53;2.33;;;32.60;8.20;;;;;;5052922;28;20690;-85
2022/08/04 15:17:04;;;;;;;2.65;2.45;;;32.60;8.30;;;;;;5061803;28;20205;-86
2022/08/04 15:19:31;;;;;;;2.80;2.45;;;32.60;8.30;;;;;;5055830;28;20202;-83
2022/08/04 15:21:59;;;;;;;4.78;4.38;;;32.60;7.80;;;;;;5061200;28;20205;-86